Terminal Aerodrome Forecast
Issued by NWS

Home | Current Version | Previous Version | Text Only | Print | Product List | Glossary On
Versions: 1 2 3 4 5 6 7 8 9 10 11 12
964
FTPA31 PHFO 191736
TAFHNY
TAF
PHNY 191736Z 1918/2018 33008KT P6SM VCSH FEW020 SCT040
     FM192000 34014G20KT P6SM VCSH SCT020 SCT040
     FM192300 34014G20KT P6SM SCT020 SCT040
     FM200400 01008KT P6SM FEW025 SCT040=

USA.gov is the U.S. government's official web portal to all federal, state and local government web resources and services.